Terminal Aerodrome Forecast
Issued by NWS

Home | Current Version | Previous Version | Text Only | Print | Product List | Glossary On
Versions: 1 2 3 4 5 6 7 8 9 10 11 12 13 14 15 16 17 18 19 20 21 22 23 24 25 26 27 28 29 30
464
FTUS44 KMOB 302346
TAFBFM
TAF
KBFM 302346Z 0100/0124 15008KT P6SM VCTS FEW015 BKN021CB OVC027
      TEMPO 0100/0103 4SM TSRA OVC015CB
     FM010500 16007KT 3SM BR OVC007
     FM011300 14009KT P6SM BKN035=

USA.gov is the U.S. government's official web portal to all federal, state and local government web resources and services.